sensor_id;sensor_type;location;lat;lon;timestamp;temperature;humidity
75321;DHT22;68337;52.196;5.660;2024-02-04T00:01:39;10.40;99.90
75321;DHT22;68337;52.196;5.660;2024-02-04T00:04:05;10.40;99.90
75321;DHT22;68337;52.196;5.660;2024-02-04T00:06:31;10.40;99.90
75321;DHT22;68337;52.196;5.660;2024-02-04T00:08:57;10.40;99.90
75321;DHT22;68337;52.196;5.660;2024-02-04T00:11:23;10.30;99.90
75321;DHT22;68337;52.196;5.660;2024-02-04T00:13:49;10.30;99.90
75321;DHT22;68337;52.196;5.660;2024-02-04T00:16:14;10.20;99.90
75321;DHT22;68337;52.196;5.660;2024-02-04T00:18:40;10.30;99.90
75321;DHT22;68337;52.196;5.660;2024-02-04T00:21:06;10.30;99.90
75321;DHT22;68337;52.196;5.660;2024-02-04T00:23:31;10.30;99.90
75321;DHT22;68337;52.196;5.660;2024-02-04T00:25:57;10.30;99.90
75321;DHT22;68337;52.196;5.660;2024-02-04T00:28:23;10.20;99.90
75321;DHT22;68337;52.196;5.660;2024-02-04T00:30:48;10.20;99.90
75321;DHT22;68337;52.196;5.660;2024-02-04T00:33:15;10.20;99.90
75321;DHT22;68337;52.196;5.660;2024-02-04T00:35:41;10.20;99.90
75321;DHT22;68337;52.196;5.660;2024-02-04T00:38:07;10.10;99.90
75321;DHT22;68337;52.196;5.660;2024-02-04T00:40:34;10.20;99.90
75321;DHT22;68337;52.196;5.660;2024-02-04T00:43:00;10.10;99.90
75321;DHT22;68337;52.196;5.660;2024-02-04T00:45:26;10.10;99.90
75321;DHT22;68337;52.196;5.660;2024-02-04T00:47:51;10.00;99.90
75321;DHT22;68337;52.196;5.660;2024-02-04T00:50:17;10.10;99.90
75321;DHT22;68337;52.196;5.660;2024-02-04T00:52:43;10.10;99.90
75321;DHT22;68337;52.196;5.660;2024-02-04T00:55:09;10.00;99.90
75321;DHT22;68337;52.196;5.660;2024-02-04T00:57:34;10.00;99.90
75321;DHT22;68337;52.196;5.660;2024-02-04T01:00:00;10.00;99.90
75321;DHT22;68337;52.196;5.660;2024-02-04T01:02:26;10.00;99.90
75321;DHT22;68337;52.196;5.660;2024-02-04T01:04:52;9.90;99.90
75321;DHT22;68337;52.196;5.660;2024-02-04T01:07:18;9.90;99.90
75321;DHT22;68337;52.196;5.660;2024-02-04T01:09:44;9.90;99.90
75321;DHT22;68337;52.196;5.660;2024-02-04T01:12:09;9.90;99.90
75321;DHT22;68337;52.196;5.660;2024-02-04T01:14:35;9.80;99.90
75321;DHT22;68337;52.196;5.660;2024-02-04T01:17:00;9.80;99.90
75321;DHT22;68337;52.196;5.660;2024-02-04T01:19:26;9.80;99.90
75321;DHT22;68337;52.196;5.660;2024-02-04T01:21:52;9.80;99.90
75321;DHT22;68337;52.196;5.660;2024-02-04T01:24:17;9.80;99.90
75321;DHT22;68337;52.196;5.660;2024-02-04T01:26:43;9.80;99.90
75321;DHT22;68337;52.196;5.660;2024-02-04T01:29:09;9.80;99.90
75321;DHT22;68337;52.196;5.660;2024-02-04T01:31:34;9.80;99.90
75321;DHT22;68337;52.196;5.660;2024-02-04T01:34:00;9.70;99.90
75321;DHT22;68337;52.196;5.660;2024-02-04T01:36:26;9.80;99.90
75321;DHT22;68337;52.196;5.660;2024-02-04T01:38:51;9.80;99.90
75321;DHT22;68337;52.196;5.660;2024-02-04T01:41:17;9.70;99.90
75321;DHT22;68337;52.196;5.660;2024-02-04T01:43:43;9.80;99.90
75321;DHT22;68337;52.196;5.660;2024-02-04T01:46:09;9.70;99.90
75321;DHT22;68337;52.196;5.660;2024-02-04T01:48:36;9.80;99.90
75321;DHT22;68337;52.196;5.660;2024-02-04T01:51:02;9.70;99.90
75321;DHT22;68337;52.196;5.660;2024-02-04T01:53:29;9.60;99.90
75321;DHT22;68337;52.196;5.660;2024-02-04T01:55:58;9.60;99.90
75321;DHT22;68337;52.196;5.660;2024-02-04T01:58:24;9.60;99.90
75321;DHT22;68337;52.196;5.660;2024-02-04T02:00:50;9.60;99.90
75321;DHT22;68337;52.196;5.660;2024-02-04T02:03:16;9.50;99.90
75321;DHT22;68337;52.196;5.660;2024-02-04T02:05:42;9.50;99.90
75321;DHT22;68337;52.196;5.660;2024-02-04T02:08:08;9.50;99.90
75321;DHT22;68337;52.196;5.660;2024-02-04T02:10:34;9.40;99.90
75321;DHT22;68337;52.196;5.660;2024-02-04T02:13:16;9.40;99.90
75321;DHT22;68337;52.196;5.660;2024-02-04T02:15:48;9.30;99.90
75321;DHT22;68337;52.196;5.660;2024-02-04T02:18:19;9.40;99.90
75321;DHT22;68337;52.196;5.660;2024-02-04T02:20:56;9.30;99.90
75321;DHT22;68337;52.196;5.660;2024-02-04T02:23:35;9.30;99.90
75321;DHT22;68337;52.196;5.660;2024-02-04T02:26:03;9.30;99.90
75321;DHT22;68337;52.196;5.660;2024-02-04T02:28:29;9.20;99.90
75321;DHT22;68337;52.196;5.660;2024-02-04T02:30:55;9.30;99.90
75321;DHT22;68337;52.196;5.660;2024-02-04T02:33:21;9.30;99.90
75321;DHT22;68337;52.196;5.660;2024-02-04T02:35:50;9.30;99.90
75321;DHT22;68337;52.196;5.660;2024-02-04T02:38:26;9.20;99.90
75321;DHT22;68337;52.196;5.660;2024-02-04T02:40:58;9.20;99.90
75321;DHT22;68337;52.196;5.660;2024-02-04T02:43:25;9.10;99.90
75321;DHT22;68337;52.196;5.660;2024-02-04T02:45:51;9.10;99.90
75321;DHT22;68337;52.196;5.660;2024-02-04T02:48:18;9.10;99.90
75321;DHT22;68337;52.196;5.660;2024-02-04T02:50:44;9.10;99.90
75321;DHT22;68337;52.196;5.660;2024-02-04T02:53:10;9.10;99.90
75321;DHT22;68337;52.196;5.660;2024-02-04T02:55:36;9.10;99.90
75321;DHT22;68337;52.196;5.660;2024-02-04T02:58:02;9.10;99.90
75321;DHT22;68337;52.196;5.660;2024-02-04T03:00:28;9.10;99.90
75321;DHT22;68337;52.196;5.660;2024-02-04T03:02:53;9.10;99.90
75321;DHT22;68337;52.196;5.660;2024-02-04T03:05:19;9.10;99.90
75321;DHT22;68337;52.196;5.660;2024-02-04T03:07:45;9.10;99.90
75321;DHT22;68337;52.196;5.660;2024-02-04T03:10:10;9.10;99.90
75321;DHT22;68337;52.196;5.660;2024-02-04T03:12:36;9.00;99.90
75321;DHT22;68337;52.196;5.660;2024-02-04T03:15:02;9.00;99.90
75321;DHT22;68337;52.196;5.660;2024-02-04T03:17:28;9.00;99.90
75321;DHT22;68337;52.196;5.660;2024-02-04T03:19:53;9.00;99.90
75321;DHT22;68337;52.196;5.660;2024-02-04T03:22:20;9.00;99.90
75321;DHT22;68337;52.196;5.660;2024-02-04T03:24:47;9.00;99.90
75321;DHT22;68337;52.196;5.660;2024-02-04T03:27:13;9.00;99.90
75321;DHT22;68337;52.196;5.660;2024-02-04T03:29:39;8.90;99.90
75321;DHT22;68337;52.196;5.660;2024-02-04T03:32:05;8.90;99.90
75321;DHT22;68337;52.196;5.660;2024-02-04T03:34:31;8.90;99.90
75321;DHT22;68337;52.196;5.660;2024-02-04T03:36:56;8.90;99.90
75321;DHT22;68337;52.196;5.660;2024-02-04T03:39:22;8.80;99.90
75321;DHT22;68337;52.196;5.660;2024-02-04T03:41:48;8.80;99.90
75321;DHT22;68337;52.196;5.660;2024-02-04T03:44:13;8.90;99.90
75321;DHT22;68337;52.196;5.660;2024-02-04T03:46:39;8.80;99.90
75321;DHT22;68337;52.196;5.660;2024-02-04T03:49:07;8.90;99.90
75321;DHT22;68337;52.196;5.660;2024-02-04T03:51:33;8.90;99.90
75321;DHT22;68337;52.196;5.660;2024-02-04T03:53:59;9.00;99.90
75321;DHT22;68337;52.196;5.660;2024-02-04T03:56:24;9.00;99.90
75321;DHT22;68337;52.196;5.660;2024-02-04T03:58:50;8.90;99.90
75321;DHT22;68337;52.196;5.660;2024-02-04T04:01:16;8.90;99.90
75321;DHT22;68337;52.196;5.660;2024-02-04T04:03:42;8.90;99.90
75321;DHT22;68337;52.196;5.660;2024-02-04T04:06:09;8.90;99.90
75321;DHT22;68337;52.196;5.660;2024-02-04T04:08:35;8.90;99.90
75321;DHT22;68337;52.196;5.660;2024-02-04T04:11:01;8.90;99.90
75321;DHT22;68337;52.196;5.660;2024-02-04T04:13:27;8.90;99.90
75321;DHT22;68337;52.196;5.660;2024-02-04T04:15:53;8.90;99.90
75321;DHT22;68337;52.196;5.660;2024-02-04T04:18:19;8.90;99.90
75321;DHT22;68337;52.196;5.660;2024-02-04T04:20:44;8.90;99.90
75321;DHT22;68337;52.196;5.660;2024-02-04T04:23:10;8.90;99.90
75321;DHT22;68337;52.196;5.660;2024-02-04T04:25:36;8.90;99.90
75321;DHT22;68337;52.196;5.660;2024-02-04T04:28:01;8.80;99.90
75321;DHT22;68337;52.196;5.660;2024-02-04T04:30:27;8.90;99.90
75321;DHT22;68337;52.196;5.660;2024-02-04T04:32:53;8.90;99.90
75321;DHT22;68337;52.196;5.660;2024-02-04T04:35:18;8.80;99.90
75321;DHT22;68337;52.196;5.660;2024-02-04T04:37:44;8.90;99.90
75321;DHT22;68337;52.196;5.660;2024-02-04T04:40:10;8.80;99.90
75321;DHT22;68337;52.196;5.660;2024-02-04T04:42:36;8.90;99.90
75321;DHT22;68337;52.196;5.660;2024-02-04T04:45:01;8.80;99.90
75321;DHT22;68337;52.196;5.660;2024-02-04T04:47:27;8.80;99.90
75321;DHT22;68337;52.196;5.660;2024-02-04T04:49:53;8.80;99.90
75321;DHT22;68337;52.196;5.660;2024-02-04T04:52:18;8.80;99.90
75321;DHT22;68337;52.196;5.660;2024-02-04T04:54:44;8.80;99.90
75321;DHT22;68337;52.196;5.660;2024-02-04T04:57:09;8.80;99.90
75321;DHT22;68337;52.196;5.660;2024-02-04T04:59:35;8.70;99.90
75321;DHT22;68337;52.196;5.660;2024-02-04T05:02:02;8.70;99.90
75321;DHT22;68337;52.196;5.660;2024-02-04T05:04:28;8.70;99.90
75321;DHT22;68337;52.196;5.660;2024-02-04T05:06:53;8.70;99.90
75321;DHT22;68337;52.196;5.660;2024-02-04T05:09:19;8.70;99.90
75321;DHT22;68337;52.196;5.660;2024-02-04T05:11:45;8.70;99.90
75321;DHT22;68337;52.196;5.660;2024-02-04T05:14:10;8.70;99.90
75321;DHT22;68337;52.196;5.660;2024-02-04T05:16:36;8.70;99.90
75321;DHT22;68337;52.196;5.660;2024-02-04T05:19:02;8.70;99.90
75321;DHT22;68337;52.196;5.660;2024-02-04T05:21:28;8.70;99.90
75321;DHT22;68337;52.196;5.660;2024-02-04T05:23:54;8.70;99.90
75321;DHT22;68337;52.196;5.660;2024-02-04T05:26:20;8.60;99.90
75321;DHT22;68337;52.196;5.660;2024-02-04T05:28:46;8.70;99.90
75321;DHT22;68337;52.196;5.660;2024-02-04T05:31:11;8.70;99.90
75321;DHT22;68337;52.196;5.660;2024-02-04T05:33:37;8.70;99.90
75321;DHT22;68337;52.196;5.660;2024-02-04T05:36:03;8.70;99.90
75321;DHT22;68337;52.196;5.660;2024-02-04T05:38:30;8.70;99.90
75321;DHT22;68337;52.196;5.660;2024-02-04T05:40:56;8.70;99.90
75321;DHT22;68337;52.196;5.660;2024-02-04T05:43:21;8.70;99.90
75321;DHT22;68337;52.196;5.660;2024-02-04T05:45:47;8.70;99.90
75321;DHT22;68337;52.196;5.660;2024-02-04T05:48:13;8.70;99.90
75321;DHT22;68337;52.196;5.660;2024-02-04T05:50:39;8.70;99.90
75321;DHT22;68337;52.196;5.660;2024-02-04T05:53:05;8.70;99.90
75321;DHT22;68337;52.196;5.660;2024-02-04T05:55:30;8.70;99.90
75321;DHT22;68337;52.196;5.660;2024-02-04T05:57:56;8.70;99.90
75321;DHT22;68337;52.196;5.660;2024-02-04T06:00:23;8.70;99.90
75321;DHT22;68337;52.196;5.660;2024-02-04T06:02:49;8.70;99.90
75321;DHT22;68337;52.196;5.660;2024-02-04T06:05:15;8.60;99.90
75321;DHT22;68337;52.196;5.660;2024-02-04T06:07:42;8.70;99.90
75321;DHT22;68337;52.196;5.660;2024-02-04T06:10:09;8.70;99.90
75321;DHT22;68337;52.196;5.660;2024-02-04T06:12:35;8.70;99.90
75321;DHT22;68337;52.196;5.660;2024-02-04T06:15:01;8.70;99.90
75321;DHT22;68337;52.196;5.660;2024-02-04T06:17:27;8.70;99.90
75321;DHT22;68337;52.196;5.660;2024-02-04T06:19:55;8.70;99.90
75321;DHT22;68337;52.196;5.660;2024-02-04T06:22:22;8.70;99.90
75321;DHT22;68337;52.196;5.660;2024-02-04T06:24:48;8.80;99.90
75321;DHT22;68337;52.196;5.660;2024-02-04T06:27:14;8.70;99.90
75321;DHT22;68337;52.196;5.660;2024-02-04T06:29:39;8.70;99.90
75321;DHT22;68337;52.196;5.660;2024-02-04T06:32:05;8.70;99.90
75321;DHT22;68337;52.196;5.660;2024-02-04T06:34:31;8.70;99.90
75321;DHT22;68337;52.196;5.660;2024-02-04T06:36:57;8.70;99.90
75321;DHT22;68337;52.196;5.660;2024-02-04T06:39:23;8.70;99.90
75321;DHT22;68337;52.196;5.660;2024-02-04T06:41:48;8.70;99.90
75321;DHT22;68337;52.196;5.660;2024-02-04T06:44:14;8.70;99.90
75321;DHT22;68337;52.196;5.660;2024-02-04T06:46:40;8.70;99.90
75321;DHT22;68337;52.196;5.660;2024-02-04T06:49:06;8.70;99.90
75321;DHT22;68337;52.196;5.660;2024-02-04T06:51:32;8.70;99.90
75321;DHT22;68337;52.196;5.660;2024-02-04T06:53:58;8.70;99.90
75321;DHT22;68337;52.196;5.660;2024-02-04T06:56:23;8.70;99.90
75321;DHT22;68337;52.196;5.660;2024-02-04T06:58:49;8.70;99.90
75321;DHT22;68337;52.196;5.660;2024-02-04T07:01:15;8.70;99.90
75321;DHT22;68337;52.196;5.660;2024-02-04T07:03:40;8.70;99.90
75321;DHT22;68337;52.196;5.660;2024-02-04T07:06:06;8.70;99.90
75321;DHT22;68337;52.196;5.660;2024-02-04T07:08:33;8.70;99.90
75321;DHT22;68337;52.196;5.660;2024-02-04T07:10:58;8.70;99.90
75321;DHT22;68337;52.196;5.660;2024-02-04T07:13:24;8.70;99.90
75321;DHT22;68337;52.196;5.660;2024-02-04T07:15:49;8.70;99.90
75321;DHT22;68337;52.196;5.660;2024-02-04T07:18:15;8.70;99.90
75321;DHT22;68337;52.196;5.660;2024-02-04T07:20:42;8.70;99.90
75321;DHT22;68337;52.196;5.660;2024-02-04T07:23:10;8.70;99.90
75321;DHT22;68337;52.196;5.660;2024-02-04T07:25:35;8.70;99.90
75321;DHT22;68337;52.196;5.660;2024-02-04T07:28:02;8.80;99.90
75321;DHT22;68337;52.196;5.660;2024-02-04T07:30:28;8.80;99.90
75321;DHT22;68337;52.196;5.660;2024-02-04T07:32:54;8.90;99.90
75321;DHT22;68337;52.196;5.660;2024-02-04T07:35:19;8.90;99.90
75321;DHT22;68337;52.196;5.660;2024-02-04T07:37:45;9.00;99.90
75321;DHT22;68337;52.196;5.660;2024-02-04T07:40:11;8.90;99.90
75321;DHT22;68337;52.196;5.660;2024-02-04T07:42:37;8.90;99.90
75321;DHT22;68337;52.196;5.660;2024-02-04T07:45:03;9.00;99.90
75321;DHT22;68337;52.196;5.660;2024-02-04T07:47:34;9.00;99.90
75321;DHT22;68337;52.196;5.660;2024-02-04T07:50:00;9.10;99.90
75321;DHT22;68337;52.196;5.660;2024-02-04T07:52:26;9.10;99.90
75321;DHT22;68337;52.196;5.660;2024-02-04T07:54:51;9.00;99.90
75321;DHT22;68337;52.196;5.660;2024-02-04T07:57:17;9.10;99.90
75321;DHT22;68337;52.196;5.660;2024-02-04T07:59:43;9.10;99.90
75321;DHT22;68337;52.196;5.660;2024-02-04T08:02:08;9.30;99.90
75321;DHT22;68337;52.196;5.660;2024-02-04T08:04:34;9.30;99.90
75321;DHT22;68337;52.196;5.660;2024-02-04T08:07:00;9.40;99.90
75321;DHT22;68337;52.196;5.660;2024-02-04T08:09:26;9.40;99.90
75321;DHT22;68337;52.196;5.660;2024-02-04T08:11:51;9.50;99.90
75321;DHT22;68337;52.196;5.660;2024-02-04T08:14:17;9.50;99.90
75321;DHT22;68337;52.196;5.660;2024-02-04T08:16:44;9.60;99.90
75321;DHT22;68337;52.196;5.660;2024-02-04T08:19:12;9.60;99.90
75321;DHT22;68337;52.196;5.660;2024-02-04T08:21:37;9.60;99.90
75321;DHT22;68337;52.196;5.660;2024-02-04T08:24:03;9.70;99.90
75321;DHT22;68337;52.196;5.660;2024-02-04T08:26:29;9.70;99.90
75321;DHT22;68337;52.196;5.660;2024-02-04T08:28:55;9.70;99.90
75321;DHT22;68337;52.196;5.660;2024-02-04T08:31:20;9.70;99.90
75321;DHT22;68337;52.196;5.660;2024-02-04T08:33:46;9.70;99.90
75321;DHT22;68337;52.196;5.660;2024-02-04T08:36:12;9.80;99.90
75321;DHT22;68337;52.196;5.660;2024-02-04T08:38:38;9.80;99.90
75321;DHT22;68337;52.196;5.660;2024-02-04T08:41:04;9.80;99.90
75321;DHT22;68337;52.196;5.660;2024-02-04T08:43:30;9.80;99.90
75321;DHT22;68337;52.196;5.660;2024-02-04T08:45:55;9.80;99.90
75321;DHT22;68337;52.196;5.660;2024-02-04T08:48:21;9.80;99.90
75321;DHT22;68337;52.196;5.660;2024-02-04T08:50:47;9.80;99.90
75321;DHT22;68337;52.196;5.660;2024-02-04T08:53:12;9.80;99.90
75321;DHT22;68337;52.196;5.660;2024-02-04T08:55:38;9.70;99.90
75321;DHT22;68337;52.196;5.660;2024-02-04T08:58:04;9.80;99.90
75321;DHT22;68337;52.196;5.660;2024-02-04T09:00:30;9.80;99.90
75321;DHT22;68337;52.196;5.660;2024-02-04T09:02:56;9.80;99.90
75321;DHT22;68337;52.196;5.660;2024-02-04T09:05:22;9.80;99.90
75321;DHT22;68337;52.196;5.660;2024-02-04T09:07:48;9.80;99.90
75321;DHT22;68337;52.196;5.660;2024-02-04T09:10:13;9.80;99.90
75321;DHT22;68337;52.196;5.660;2024-02-04T09:12:39;9.80;99.90
75321;DHT22;68337;52.196;5.660;2024-02-04T09:15:05;9.80;99.90
75321;DHT22;68337;52.196;5.660;2024-02-04T09:17:31;9.80;99.90
75321;DHT22;68337;52.196;5.660;2024-02-04T09:19:59;9.80;99.90
75321;DHT22;68337;52.196;5.660;2024-02-04T09:22:25;9.80;99.90
75321;DHT22;68337;52.196;5.660;2024-02-04T09:24:51;9.90;99.90
75321;DHT22;68337;52.196;5.660;2024-02-04T09:27:16;9.80;99.90
75321;DHT22;68337;52.196;5.660;2024-02-04T09:29:42;9.90;99.90
75321;DHT22;68337;52.196;5.660;2024-02-04T09:32:07;9.90;99.90
75321;DHT22;68337;52.196;5.660;2024-02-04T09:34:33;9.90;99.90
75321;DHT22;68337;52.196;5.660;2024-02-04T09:36:59;10.00;99.90
75321;DHT22;68337;52.196;5.660;2024-02-04T09:39:25;10.00;99.90
75321;DHT22;68337;52.196;5.660;2024-02-04T09:41:50;10.10;99.90
75321;DHT22;68337;52.196;5.660;2024-02-04T09:44:17;10.10;99.90
75321;DHT22;68337;52.196;5.660;2024-02-04T09:46:42;10.20;99.90
75321;DHT22;68337;52.196;5.660;2024-02-04T09:49:08;10.20;99.90
75321;DHT22;68337;52.196;5.660;2024-02-04T09:51:34;10.20;99.90
75321;DHT22;68337;52.196;5.660;2024-02-04T09:54:03;10.30;99.90
75321;DHT22;68337;52.196;5.660;2024-02-04T09:56:31;10.40;99.90
75321;DHT22;68337;52.196;5.660;2024-02-04T09:58:58;10.40;99.90
75321;DHT22;68337;52.196;5.660;2024-02-04T10:01:25;10.50;99.90
75321;DHT22;68337;52.196;5.660;2024-02-04T10:03:51;10.50;99.90
75321;DHT22;68337;52.196;5.660;2024-02-04T10:06:17;10.60;99.90
75321;DHT22;68337;52.196;5.660;2024-02-04T10:08:43;10.60;99.90
75321;DHT22;68337;52.196;5.660;2024-02-04T10:11:09;10.60;99.90
75321;DHT22;68337;52.196;5.660;2024-02-04T10:13:45;10.60;99.90
75321;DHT22;68337;52.196;5.660;2024-02-04T10:16:13;10.70;99.90
75321;DHT22;68337;52.196;5.660;2024-02-04T10:18:42;10.70;99.90
75321;DHT22;68337;52.196;5.660;2024-02-04T10:21:17;10.80;99.90
75321;DHT22;68337;52.196;5.660;2024-02-04T10:23:47;10.80;99.90
75321;DHT22;68337;52.196;5.660;2024-02-04T10:26:13;10.70;99.90
75321;DHT22;68337;52.196;5.660;2024-02-04T10:28:39;10.80;99.90
75321;DHT22;68337;52.196;5.660;2024-02-04T10:31:12;10.80;99.90
75321;DHT22;68337;52.196;5.660;2024-02-04T10:33:38;10.80;99.90
75321;DHT22;68337;52.196;5.660;2024-02-04T10:36:04;10.80;99.90
75321;DHT22;68337;52.196;5.660;2024-02-04T10:38:30;10.80;99.90
75321;DHT22;68337;52.196;5.660;2024-02-04T10:40:59;10.80;99.90
75321;DHT22;68337;52.196;5.660;2024-02-04T10:43:31;10.80;99.90
75321;DHT22;68337;52.196;5.660;2024-02-04T10:46:08;10.80;99.90
75321;DHT22;68337;52.196;5.660;2024-02-04T10:48:37;10.80;99.90
75321;DHT22;68337;52.196;5.660;2024-02-04T10:51:12;10.80;99.90
75321;DHT22;68337;52.196;5.660;2024-02-04T10:53:41;10.80;99.90
75321;DHT22;68337;52.196;5.660;2024-02-04T10:56:17;10.80;99.90
75321;DHT22;68337;52.196;5.660;2024-02-04T10:58:44;10.80;99.90
75321;DHT22;68337;52.196;5.660;2024-02-04T11:01:11;10.80;99.90
75321;DHT22;68337;52.196;5.660;2024-02-04T11:03:39;10.80;99.90
75321;DHT22;68337;52.196;5.660;2024-02-04T11:06:07;10.80;99.90
75321;DHT22;68337;52.196;5.660;2024-02-04T11:08:35;10.80;99.90
75321;DHT22;68337;52.196;5.660;2024-02-04T11:11:00;10.80;99.90
75321;DHT22;68337;52.196;5.660;2024-02-04T11:13:27;10.80;99.90
75321;DHT22;68337;52.196;5.660;2024-02-04T11:15:56;10.70;99.90
75321;DHT22;68337;52.196;5.660;2024-02-04T11:18:39;10.70;99.90
75321;DHT22;68337;52.196;5.660;2024-02-04T11:26:22;10.60;99.90
75321;DHT22;68337;52.196;5.660;2024-02-04T11:28:49;10.60;99.90
75321;DHT22;68337;52.196;5.660;2024-02-04T11:31:17;10.50;99.90
75321;DHT22;68337;52.196;5.660;2024-02-04T11:33:43;10.50;99.90
75321;DHT22;68337;52.196;5.660;2024-02-04T11:36:14;10.50;99.90
75321;DHT22;68337;52.196;5.660;2024-02-04T11:38:40;10.50;99.90
75321;DHT22;68337;52.196;5.660;2024-02-04T11:41:06;10.50;99.90
75321;DHT22;68337;52.196;5.660;2024-02-04T11:43:34;10.50;99.90
75321;DHT22;68337;52.196;5.660;2024-02-04T11:46:04;10.50;99.90
75321;DHT22;68337;52.196;5.660;2024-02-04T11:48:30;10.50;99.90
75321;DHT22;68337;52.196;5.660;2024-02-04T11:50:59;10.50;99.90
75321;DHT22;68337;52.196;5.660;2024-02-04T11:53:26;10.50;99.90
75321;DHT22;68337;52.196;5.660;2024-02-04T11:55:55;10.50;99.90
75321;DHT22;68337;52.196;5.660;2024-02-04T11:58:21;10.50;99.90
75321;DHT22;68337;52.196;5.660;2024-02-04T12:00:47;10.50;99.90
75321;DHT22;68337;52.196;5.660;2024-02-04T12:03:15;10.60;99.90
75321;DHT22;68337;52.196;5.660;2024-02-04T12:05:41;10.50;99.90
75321;DHT22;68337;52.196;5.660;2024-02-04T12:08:07;10.50;99.90
75321;DHT22;68337;52.196;5.660;2024-02-04T12:10:35;10.50;99.90
75321;DHT22;68337;52.196;5.660;2024-02-04T12:13:03;10.60;99.90
75321;DHT22;68337;52.196;5.660;2024-02-04T12:15:29;10.60;99.90
75321;DHT22;68337;52.196;5.660;2024-02-04T12:18:05;10.60;99.90
75321;DHT22;68337;52.196;5.660;2024-02-04T12:20:31;10.70;99.90
75321;DHT22;68337;52.196;5.660;2024-02-04T12:22:57;10.80;99.90
75321;DHT22;68337;52.196;5.660;2024-02-04T12:25:23;10.90;99.90
75321;DHT22;68337;52.196;5.660;2024-02-04T12:27:52;10.90;99.90
75321;DHT22;68337;52.196;5.660;2024-02-04T12:30:17;10.70;99.90
75321;DHT22;68337;52.196;5.660;2024-02-04T12:32:43;10.60;99.90
75321;DHT22;68337;52.196;5.660;2024-02-04T12:35:13;10.60;99.90
75321;DHT22;68337;52.196;5.660;2024-02-04T12:37:50;10.60;99.90
75321;DHT22;68337;52.196;5.660;2024-02-04T12:40:21;10.60;99.90
75321;DHT22;68337;52.196;5.660;2024-02-04T12:42:53;10.60;99.90
75321;DHT22;68337;52.196;5.660;2024-02-04T12:45:19;10.60;99.90
75321;DHT22;68337;52.196;5.660;2024-02-04T12:47:49;10.60;99.90
75321;DHT22;68337;52.196;5.660;2024-02-04T12:50:16;10.60;99.90
75321;DHT22;68337;52.196;5.660;2024-02-04T12:52:41;10.60;99.90
75321;DHT22;68337;52.196;5.660;2024-02-04T12:55:07;10.60;99.90
75321;DHT22;68337;52.196;5.660;2024-02-04T12:57:33;10.60;99.90
75321;DHT22;68337;52.196;5.660;2024-02-04T13:00:06;10.60;99.90
75321;DHT22;68337;52.196;5.660;2024-02-04T13:02:33;10.60;99.90
75321;DHT22;68337;52.196;5.660;2024-02-04T13:05:00;10.60;99.90
75321;DHT22;68337;52.196;5.660;2024-02-04T13:07:25;10.70;99.90
75321;DHT22;68337;52.196;5.660;2024-02-04T13:09:59;10.70;99.90
75321;DHT22;68337;52.196;5.660;2024-02-04T13:12:25;10.70;99.90
75321;DHT22;68337;52.196;5.660;2024-02-04T13:14:51;10.70;99.90
75321;DHT22;68337;52.196;5.660;2024-02-04T13:17:17;10.70;99.90
75321;DHT22;68337;52.196;5.660;2024-02-04T13:19:42;10.60;99.90
75321;DHT22;68337;52.196;5.660;2024-02-04T13:22:09;10.60;99.90
75321;DHT22;68337;52.196;5.660;2024-02-04T13:24:35;10.60;99.90
75321;DHT22;68337;52.196;5.660;2024-02-04T13:27:02;10.60;99.90
75321;DHT22;68337;52.196;5.660;2024-02-04T13:29:30;10.60;99.90
75321;DHT22;68337;52.196;5.660;2024-02-04T13:31:55;10.60;99.90
75321;DHT22;68337;52.196;5.660;2024-02-04T13:34:21;10.60;99.90
75321;DHT22;68337;52.196;5.660;2024-02-04T13:36:47;10.60;99.90
75321;DHT22;68337;52.196;5.660;2024-02-04T13:39:13;10.60;99.90
75321;DHT22;68337;52.196;5.660;2024-02-04T13:41:40;10.70;99.90
75321;DHT22;68337;52.196;5.660;2024-02-04T13:44:06;10.70;99.90
75321;DHT22;68337;52.196;5.660;2024-02-04T13:46:32;10.70;99.90
75321;DHT22;68337;52.196;5.660;2024-02-04T13:48:58;10.70;99.90
75321;DHT22;68337;52.196;5.660;2024-02-04T13:51:24;10.70;99.90
75321;DHT22;68337;52.196;5.660;2024-02-04T13:53:50;10.80;99.90
75321;DHT22;68337;52.196;5.660;2024-02-04T13:56:16;10.80;99.90
75321;DHT22;68337;52.196;5.660;2024-02-04T13:58:44;10.80;99.90
75321;DHT22;68337;52.196;5.660;2024-02-04T14:01:10;10.80;99.90
75321;DHT22;68337;52.196;5.660;2024-02-04T14:03:37;10.80;99.90
75321;DHT22;68337;52.196;5.660;2024-02-04T14:06:02;10.90;99.90
75321;DHT22;68337;52.196;5.660;2024-02-04T14:08:29;10.90;99.90
75321;DHT22;68337;52.196;5.660;2024-02-04T14:10:55;10.90;99.90
75321;DHT22;68337;52.196;5.660;2024-02-04T14:13:21;10.80;99.90
75321;DHT22;68337;52.196;5.660;2024-02-04T14:15:47;10.80;99.90
75321;DHT22;68337;52.196;5.660;2024-02-04T14:18:13;10.80;99.90
75321;DHT22;68337;52.196;5.660;2024-02-04T14:20:38;10.50;99.90
75321;DHT22;68337;52.196;5.660;2024-02-04T14:23:04;10.80;99.90
75321;DHT22;68337;52.196;5.660;2024-02-04T14:25:30;10.90;99.90
75321;DHT22;68337;52.196;5.660;2024-02-04T14:27:55;10.90;99.90
75321;DHT22;68337;52.196;5.660;2024-02-04T14:30:21;10.90;99.90
75321;DHT22;68337;52.196;5.660;2024-02-04T14:32:46;10.90;99.90
75321;DHT22;68337;52.196;5.660;2024-02-04T14:35:12;10.90;99.90
75321;DHT22;68337;52.196;5.660;2024-02-04T14:37:38;10.90;99.90
75321;DHT22;68337;52.196;5.660;2024-02-04T14:40:06;10.90;99.90
75321;DHT22;68337;52.196;5.660;2024-02-04T14:42:33;10.90;99.90
75321;DHT22;68337;52.196;5.660;2024-02-04T14:44:59;10.90;99.90
75321;DHT22;68337;52.196;5.660;2024-02-04T14:47:27;10.80;99.90
75321;DHT22;68337;52.196;5.660;2024-02-04T14:49:53;10.80;99.90
75321;DHT22;68337;52.196;5.660;2024-02-04T14:52:19;10.80;99.90
75321;DHT22;68337;52.196;5.660;2024-02-04T14:54:45;10.80;99.90
75321;DHT22;68337;52.196;5.660;2024-02-04T14:57:10;10.80;99.90
75321;DHT22;68337;52.196;5.660;2024-02-04T14:59:36;10.80;99.90
75321;DHT22;68337;52.196;5.660;2024-02-04T15:02:04;10.90;99.90
75321;DHT22;68337;52.196;5.660;2024-02-04T15:04:31;10.80;99.90
75321;DHT22;68337;52.196;5.660;2024-02-04T15:06:58;10.80;99.90
75321;DHT22;68337;52.196;5.660;2024-02-04T15:09:24;10.80;99.90
75321;DHT22;68337;52.196;5.660;2024-02-04T15:11:50;10.80;99.90
75321;DHT22;68337;52.196;5.660;2024-02-04T15:14:16;10.90;99.90
75321;DHT22;68337;52.196;5.660;2024-02-04T15:16:43;10.90;99.90
75321;DHT22;68337;52.196;5.660;2024-02-04T15:19:09;10.90;99.90
75321;DHT22;68337;52.196;5.660;2024-02-04T15:21:36;10.80;99.90
75321;DHT22;68337;52.196;5.660;2024-02-04T15:24:02;10.80;99.90
75321;DHT22;68337;52.196;5.660;2024-02-04T15:26:33;10.80;99.90
75321;DHT22;68337;52.196;5.660;2024-02-04T15:29:02;10.90;99.90
75321;DHT22;68337;52.196;5.660;2024-02-04T15:31:28;10.90;99.90
75321;DHT22;68337;52.196;5.660;2024-02-04T15:33:54;10.90;99.90
75321;DHT22;68337;52.196;5.660;2024-02-04T15:36:20;10.80;99.90
75321;DHT22;68337;52.196;5.660;2024-02-04T15:38:47;10.90;99.90
75321;DHT22;68337;52.196;5.660;2024-02-04T15:41:13;10.90;99.90